Terminal Aerodrome Forecast
Issued by NWS Wilmington, OH

Current Version | Previous Version | Graphics & Text | Print | Product List | Glossary On
Versions: 1 2 3 4 5 6 7 8 9 10 11 12 13 14 15 16 17 18 19 20 21 22 23 24 25 26 27 28 29
000
FTUS41 KILN 292156 AAD
TAFCVG
TAF AMD
KCVG 292156Z 2922/3024 24006KT P6SM VCTS SCT040CB BKN200
      TEMPO 2922/2923 3SM -TSRA BR BKN025CB
     FM292300 30006KT P6SM SCT040 BKN120
     FM300100 32004KT P6SM SCT120
     FM300600 34007KT P6SM SCT020
     FM301300 31007KT P6SM FEW030=

USA.gov is the U.S. government's official web portal to all federal, state and local government web resources and services.